createdAt,value
2022-10-27T00:01:21.133Z,27.23
2022-10-27T00:03:51.493Z,27.70
2022-10-27T00:06:18.351Z,27.40
2022-10-27T00:08:44.972Z,26.57
2022-10-27T00:11:11.774Z,26.27
2022-10-27T00:13:38.478Z,26.30
2022-10-27T00:16:10.054Z,24.67
2022-10-27T00:18:36.762Z,24.30
2022-10-27T00:21:08.373Z,23.97
2022-10-27T00:23:35.228Z,24.37
2022-10-27T00:26:01.953Z,24.03
2022-10-27T00:28:28.921Z,24.87
2022-10-27T00:31:02.350Z,24.07
2022-10-27T00:33:29.144Z,24.33
2022-10-27T00:35:55.789Z,25.07
2022-10-27T00:38:23.137Z,23.77
2022-10-27T00:40:49.951Z,24.53
2022-10-27T00:43:43.060Z,22.67
2022-10-27T00:46:18.792Z,22.97
2022-10-27T00:48:45.835Z,21.37
2022-10-27T00:51:12.535Z,20.87
2022-10-27T00:53:39.272Z,20.27
2022-10-27T00:56:06.063Z,19.23
2022-10-27T00:58:32.793Z,20.73
2022-10-27T01:00:59.575Z,20.73
2022-10-27T01:03:26.418Z,21.37
2022-10-27T01:05:53.078Z,20.40
2022-10-27T01:08:19.951Z,21.37
2022-10-27T01:10:46.552Z,20.30
2022-10-27T01:13:13.277Z,19.23
2022-10-27T01:15:50.448Z,20.73
2022-10-27T01:18:36.254Z,19.97
2022-10-27T01:21:21.876Z,19.00
2022-10-27T01:23:57.383Z,16.70
2022-10-27T01:26:29.866Z,19.40
2022-10-27T01:29:32.177Z,19.37
2022-10-27T01:31:58.940Z,20.97
2022-10-27T01:34:25.841Z,20.77
2022-10-27T01:36:58.051Z,20.10
2022-10-27T01:39:27.921Z,19.70
2022-10-27T01:42:15.019Z,19.37
2022-10-27T01:44:42.197Z,19.83
2022-10-27T01:47:09.749Z,21.57
2022-10-27T01:49:37.211Z,21.63
2022-10-27T01:52:04.579Z,22.80
2022-10-27T01:54:31.364Z,21.37
2022-10-27T01:56:57.965Z,22.00
2022-10-27T01:59:43.480Z,22.37
2022-10-27T02:02:16.399Z,21.60
2022-10-27T02:04:45.742Z,21.03
2022-10-27T02:07:13.919Z,18.03
2022-10-27T02:09:40.650Z,19.30
2022-10-27T02:12:09.939Z,17.93
2022-10-27T02:14:38.837Z,17.90
2022-10-27T02:17:05.580Z,16.60
2022-10-27T02:19:36.047Z,17.60
2022-10-27T02:22:02.872Z,17.43
2022-10-27T02:24:29.545Z,19.43
2022-10-27T02:27:00.119Z,16.67
2022-10-27T02:29:32.730Z,16.87
2022-10-27T02:32:00.007Z,16.33
2022-10-27T02:34:27.166Z,22.83
2022-10-27T02:36:53.984Z,20.53
2022-10-27T02:39:20.857Z,22.13
2022-10-27T02:41:47.656Z,15.10
2022-10-27T02:44:14.258Z,16.03
2022-10-27T02:46:43.619Z,15.10
2022-10-27T02:49:12.090Z,15.10
2022-10-27T02:51:38.709Z,15.53
2022-10-27T02:54:05.414Z,17.33
2022-10-27T02:56:32.086Z,15.53
2022-10-27T02:58:58.915Z,15.43
2022-10-27T03:01:25.678Z,15.17
2022-10-27T03:03:52.616Z,15.47
2022-10-27T03:06:19.243Z,13.53
2022-10-27T03:08:46.011Z,14.97
2022-10-27T03:11:12.641Z,14.07
2022-10-27T03:13:39.473Z,12.87
2022-10-27T03:16:06.509Z,12.90
2022-10-27T03:18:33.573Z,13.07
2022-10-27T03:21:00.404Z,16.00
2022-10-27T03:23:27.119Z,13.57
2022-10-27T03:25:57.898Z,16.87
2022-10-27T03:28:27.371Z,19.03
2022-10-27T03:30:54.013Z,23.63
2022-10-27T03:33:20.783Z,25.87
2022-10-27T03:35:47.569Z,26.63
2022-10-27T03:38:14.600Z,25.07
2022-10-27T03:40:41.381Z,24.50
2022-10-27T03:43:08.806Z,26.13
2022-10-27T03:45:35.576Z,26.30
2022-10-27T03:48:02.784Z,27.40
2022-10-27T03:50:29.684Z,29.00
2022-10-27T03:52:56.647Z,30.47
2022-10-27T03:55:23.357Z,30.03
2022-10-27T03:57:50.595Z,30.53
2022-10-27T04:00:17.772Z,31.80
2022-10-27T04:02:44.674Z,31.80
2022-10-27T04:05:11.626Z,34.27
2022-10-27T04:07:38.788Z,33.70
2022-10-27T04:10:06.132Z,34.30
2022-10-27T04:12:32.908Z,32.30
2022-10-27T04:14:59.572Z,30.70
2022-10-27T04:17:26.431Z,31.00
2022-10-27T04:19:53.167Z,30.40
2022-10-27T04:22:19.882Z,31.63
2022-10-27T04:24:46.532Z,31.77
2022-10-27T04:29:45.185Z,30.40
2022-10-27T04:32:12.045Z,29.90
2022-10-27T04:34:38.950Z,30.43
2022-10-27T04:37:05.754Z,27.43
2022-10-27T04:39:32.560Z,29.40
2022-10-27T04:41:59.421Z,29.53
2022-10-27T04:44:26.311Z,26.90
2022-10-27T04:46:52.987Z,26.63
2022-10-27T04:49:20.114Z,27.90
2022-10-27T04:51:46.824Z,26.87
2022-10-27T04:54:13.682Z,26.57
2022-10-27T04:56:40.372Z,24.00
2022-10-27T04:59:07.382Z,25.97
2022-10-27T05:01:34.208Z,25.57
2022-10-27T05:04:01.506Z,25.00
2022-10-27T05:06:28.256Z,23.87
2022-10-27T05:11:27.286Z,24.23
2022-10-27T05:13:54.145Z,25.03
2022-10-27T05:16:21.150Z,24.63
2022-10-27T05:18:48.052Z,24.27
2022-10-27T05:21:14.855Z,22.87
2022-10-27T05:23:45.349Z,23.60
2022-10-27T05:26:13.692Z,24.00
2022-10-27T05:28:44.221Z,22.17
2022-10-27T05:31:11.603Z,23.43
2022-10-27T05:33:38.289Z,22.87
2022-10-27T05:36:05.415Z,23.03
2022-10-27T05:38:32.045Z,24.33
2022-10-27T05:40:58.775Z,22.67
2022-10-27T05:43:25.484Z,22.60
2022-10-27T05:45:52.247Z,23.40
2022-10-27T05:52:59.237Z,18.47
2022-10-27T05:55:26.079Z,20.90
2022-10-27T05:57:53.758Z,20.30
2022-10-27T06:00:22.177Z,22.27
2022-10-27T06:02:49.624Z,22.30
2022-10-27T06:05:16.866Z,22.63
2022-10-27T06:07:43.770Z,22.63
2022-10-27T06:10:11.897Z,23.73
2022-10-27T06:12:38.810Z,22.33
2022-10-27T06:15:06.073Z,22.87
2022-10-27T06:17:32.889Z,21.27
2022-10-27T06:19:59.853Z,23.83
2022-10-27T06:22:26.666Z,22.67
2022-10-27T06:24:56.140Z,23.70
2022-10-27T06:27:22.900Z,23.50
2022-10-27T06:29:50.601Z,22.97
2022-10-27T06:32:17.895Z,22.97
2022-10-27T06:34:44.758Z,22.07
2022-10-27T06:37:11.649Z,21.50
2022-10-27T06:39:41.571Z,22.17
2022-10-27T06:42:08.474Z,21.00
2022-10-27T06:44:37.546Z,21.33
2022-10-27T06:47:04.651Z,22.10
2022-10-27T06:49:31.392Z,22.47
2022-10-27T06:52:00.361Z,21.23
2022-10-27T06:54:27.752Z,20.00
2022-10-27T06:56:54.682Z,21.07
2022-10-27T06:59:21.963Z,21.77
2022-10-27T07:01:49.054Z,21.27
2022-10-27T07:04:16.037Z,20.57
2022-10-27T07:06:43.186Z,19.70
2022-10-27T07:09:11.427Z,19.83
2022-10-27T07:11:38.312Z,19.37
2022-10-27T07:14:05.079Z,19.97
2022-10-27T07:16:34.018Z,19.83
2022-10-27T07:19:01.974Z,20.33
2022-10-27T07:21:29.409Z,18.80
2022-10-27T07:23:56.479Z,19.43
2022-10-27T07:26:23.710Z,18.23
2022-10-27T07:28:50.472Z,16.70
2022-10-27T07:31:17.534Z,15.77
2022-10-27T07:33:44.205Z,15.37
2022-10-27T07:36:11.002Z,13.50
2022-10-27T07:38:39.145Z,14.43
2022-10-27T07:41:06.262Z,14.03
2022-10-27T07:43:33.125Z,13.43
2022-10-27T07:46:02.444Z,14.50
2022-10-27T07:48:29.132Z,14.30
2022-10-27T07:50:55.901Z,13.60
2022-10-27T07:53:22.572Z,14.23
2022-10-27T07:55:49.348Z,14.43
2022-10-27T07:58:16.534Z,15.17
2022-10-27T08:00:44.579Z,14.23
2022-10-27T08:03:12.113Z,14.37
2022-10-27T08:05:39.051Z,13.13
2022-10-27T08:08:06.360Z,12.43
2022-10-27T08:10:33.879Z,13.00
2022-10-27T08:13:01.200Z,12.63
2022-10-27T08:15:28.041Z,13.63
2022-10-27T08:17:55.246Z,13.47
2022-10-27T08:20:22.481Z,12.93
2022-10-27T08:22:58.429Z,13.30
2022-10-27T08:25:25.295Z,13.63
2022-10-27T08:27:52.304Z,13.97
2022-10-27T08:30:20.332Z,14.77
2022-10-27T08:32:50.321Z,14.40
2022-10-27T08:35:17.859Z,13.97
2022-10-27T08:37:44.617Z,15.17
2022-10-27T08:40:11.371Z,16.20
2022-10-27T08:42:42.229Z,16.40
2022-10-27T08:45:10.168Z,15.13
2022-10-27T08:47:36.832Z,15.40
2022-10-27T08:50:10.905Z,15.07
2022-10-27T08:52:41.481Z,16.10
2022-10-27T08:55:14.396Z,15.33
2022-10-27T08:57:46.377Z,15.90
2022-10-27T09:00:13.391Z,15.00
2022-10-27T09:02:51.772Z,14.67
2022-10-27T09:05:26.206Z,14.60
2022-10-27T09:07:56.104Z,15.63
2022-10-27T09:10:32.010Z,15.03
2022-10-27T09:13:20.611Z,14.47
2022-10-27T09:15:47.981Z,14.50
2022-10-27T09:18:14.690Z,14.50
2022-10-27T09:20:51.150Z,15.07
2022-10-27T09:23:23.492Z,14.10
2022-10-27T09:25:53.219Z,14.13
2022-10-27T09:28:28.233Z,14.33
2022-10-27T09:33:22.643Z,14.13
2022-10-27T09:35:50.123Z,14.23
2022-10-27T09:38:18.044Z,14.60
2022-10-27T09:40:44.752Z,15.13
2022-10-27T09:43:11.705Z,16.97
2022-10-27T09:45:39.256Z,16.83
2022-10-27T09:48:07.184Z,16.70
2022-10-27T09:50:37.023Z,15.27
2022-10-27T09:53:04.235Z,14.37
2022-10-27T09:55:50.522Z,14.33
2022-10-27T09:58:17.405Z,13.80
2022-10-27T10:00:44.418Z,13.57
2022-10-27T10:03:21.586Z,13.27
2022-10-27T10:06:08.600Z,13.33
2022-10-27T10:08:36.980Z,12.70
2022-10-27T10:11:07.354Z,13.20
2022-10-27T10:13:34.876Z,12.00
2022-10-27T10:16:05.246Z,12.93
2022-10-27T10:18:32.313Z,9.53
2022-10-27T10:20:59.619Z,9.57
2022-10-27T10:23:27.189Z,9.10
2022-10-27T10:25:54.588Z,8.70
2022-10-27T10:28:21.459Z,8.73
2022-10-27T10:30:49.643Z,8.90
2022-10-27T10:33:16.545Z,9.20
2022-10-27T10:35:44.598Z,9.23
2022-10-27T10:38:31.213Z,9.07
2022-10-27T10:41:04.094Z,9.27
2022-10-27T10:43:31.048Z,10.03
2022-10-27T10:46:00.992Z,10.07
2022-10-27T10:48:31.266Z,10.27
2022-10-27T10:50:58.270Z,10.73
2022-10-27T10:53:27.738Z,10.20
2022-10-27T10:55:59.118Z,11.13
2022-10-27T10:58:26.032Z,10.60
2022-10-27T11:00:57.094Z,10.90
2022-10-27T11:03:24.769Z,10.07
2022-10-27T11:05:59.207Z,10.83
2022-10-27T11:08:46.392Z,11.03
2022-10-27T11:11:15.205Z,10.20
2022-10-27T11:13:47.337Z,11.00
2022-10-27T11:16:14.113Z,11.20
2022-10-27T11:18:46.194Z,11.63
2022-10-27T11:21:22.405Z,11.27
2022-10-27T11:23:50.104Z,10.70
2022-10-27T11:26:17.961Z,11.03
2022-10-27T11:28:57.003Z,11.00
2022-10-27T11:31:24.915Z,11.53
2022-10-27T11:33:57.992Z,11.00
2022-10-27T11:36:34.037Z,10.90
2022-10-27T11:39:07.787Z,10.67
2022-10-27T11:41:42.536Z,11.00
2022-10-27T11:44:28.563Z,10.50
2022-10-27T11:46:55.379Z,11.83
2022-10-27T11:49:25.362Z,10.23
2022-10-27T11:52:01.212Z,11.17
2022-10-27T11:54:28.087Z,11.57
2022-10-27T11:57:34.715Z,11.53
2022-10-27T12:00:17.345Z,11.97
2022-10-27T12:03:09.016Z,11.20
2022-10-27T12:05:37.849Z,10.77
2022-10-27T12:08:17.271Z,10.07
2022-10-27T12:10:49.081Z,11.57
2022-10-27T12:13:22.455Z,11.90
2022-10-27T12:15:49.246Z,11.50
2022-10-27T12:18:23.001Z,13.00
2022-10-27T12:20:51.923Z,12.50
2022-10-27T12:23:20.198Z,12.30
2022-10-27T12:25:50.497Z,11.27
2022-10-27T12:28:17.272Z,10.23
2022-10-27T12:30:45.364Z,10.83
2022-10-27T12:33:28.887Z,11.47
2022-10-27T12:36:05.130Z,10.77
2022-10-27T12:38:50.904Z,10.30
2022-10-27T12:41:21.835Z,9.40
2022-10-27T12:44:05.009Z,9.20
2022-10-27T12:46:37.883Z,8.87
2022-10-27T12:49:07.721Z,8.70
2022-10-27T12:51:42.773Z,9.00
2022-10-27T12:54:15.850Z,8.50
2022-10-27T12:56:50.901Z,8.67
2022-10-27T12:59:39.406Z,8.33
2022-10-27T13:02:09.742Z,8.60
2022-10-27T13:04:37.144Z,8.23
2022-10-27T13:07:04.123Z,8.60
2022-10-27T13:09:37.096Z,9.13
2022-10-27T13:12:09.481Z,7.53
2022-10-27T13:14:55.612Z,7.90
2022-10-27T13:17:25.461Z,7.33
2022-10-27T13:19:57.580Z,7.50
2022-10-27T13:22:28.272Z,7.53
2022-10-27T13:25:15.241Z,7.47
2022-10-27T13:27:45.496Z,7.20
2022-10-27T13:30:22.109Z,5.43
2022-10-27T13:32:49.031Z,3.57
2022-10-27T13:35:15.878Z,3.70
2022-10-27T13:37:47.916Z,3.50
2022-10-27T13:40:18.123Z,3.20
2022-10-27T13:42:45.583Z,3.70
2022-10-27T13:45:27.752Z,4.00
2022-10-27T13:48:07.061Z,5.17
2022-10-27T13:50:37.535Z,4.37
2022-10-27T13:53:16.583Z,5.97
2022-10-27T13:55:52.989Z,4.00
2022-10-27T13:58:22.670Z,4.33
2022-10-27T14:00:55.509Z,4.30
2022-10-27T14:06:14.512Z,4.17
2022-10-27T14:08:44.422Z,3.70
2022-10-27T14:11:12.532Z,4.00
2022-10-27T14:13:40.201Z,4.67
2022-10-27T14:16:07.348Z,4.33
2022-10-27T14:18:34.818Z,4.20
2022-10-27T14:21:14.439Z,3.90
2022-10-27T14:23:41.729Z,4.40
2022-10-27T14:26:26.802Z,4.07
2022-10-27T14:28:56.047Z,4.20
2022-10-27T14:31:25.611Z,4.17
2022-10-27T14:33:52.965Z,4.60
2022-10-27T14:36:33.606Z,4.17
2022-10-27T14:39:06.786Z,4.60
2022-10-27T14:41:34.597Z,4.47
2022-10-27T14:44:01.715Z,4.40
2022-10-27T14:46:30.412Z,4.47
2022-10-27T14:49:00.984Z,4.70
2022-10-27T14:51:27.961Z,5.73
2022-10-27T14:53:54.915Z,6.00
2022-10-27T14:56:25.770Z,6.20
2022-10-27T14:58:56.482Z,6.07
2022-10-27T15:01:35.426Z,6.20
2022-10-27T15:04:15.182Z,5.60
2022-10-27T15:06:45.622Z,5.77
2022-10-27T15:09:16.214Z,6.67
2022-10-27T15:11:42.986Z,6.07
2022-10-27T15:14:10.052Z,6.80
2022-10-27T15:16:36.869Z,6.33
2022-10-27T15:19:03.651Z,5.80
2022-10-27T15:21:30.370Z,6.60
2022-10-27T15:24:01.556Z,5.47
2022-10-27T15:26:28.784Z,5.83
2022-10-27T15:28:55.600Z,5.63
2022-10-27T15:31:22.615Z,5.90
2022-10-27T15:33:57.320Z,5.23
2022-10-27T15:36:24.533Z,6.23
2022-10-27T15:38:51.526Z,6.03
2022-10-27T15:41:21.619Z,7.00
2022-10-27T15:43:52.799Z,6.17
2022-10-27T15:46:30.004Z,6.50
2022-10-27T15:49:02.822Z,7.93
2022-10-27T15:51:48.575Z,6.63
2022-10-27T15:57:04.691Z,8.23
2022-10-27T15:59:32.047Z,9.23
2022-10-27T16:02:04.003Z,8.70
2022-10-27T16:04:31.004Z,8.47
2022-10-27T16:07:13.660Z,7.60
2022-10-27T16:09:43.404Z,9.80
2022-10-27T16:12:17.420Z,8.17
2022-10-27T16:14:49.463Z,8.20
2022-10-27T16:17:21.630Z,8.57
2022-10-27T16:19:48.812Z,8.37
2022-10-27T16:22:17.856Z,11.10
2022-10-27T16:24:48.450Z,11.53
2022-10-27T16:27:23.124Z,12.73
2022-10-27T16:29:53.337Z,12.50
2022-10-27T16:32:22.138Z,14.03
2022-10-27T16:34:49.771Z,14.37
2022-10-27T16:37:21.663Z,12.43
2022-10-27T16:39:48.975Z,10.50
2022-10-27T16:42:15.925Z,11.40
2022-10-27T16:44:42.837Z,12.17
2022-10-27T16:47:12.825Z,11.47
2022-10-27T16:49:39.858Z,15.57
2022-10-27T16:52:06.780Z,19.43
2022-10-27T16:54:34.291Z,15.73
2022-10-27T16:57:01.198Z,13.37
2022-10-27T16:59:29.899Z,17.97
2022-10-27T17:01:58.382Z,23.70
2022-10-27T17:04:25.870Z,23.03
2022-10-27T17:06:52.979Z,17.13
2022-10-27T17:09:19.944Z,16.83
2022-10-27T17:11:46.705Z,20.37
2022-10-27T17:14:13.591Z,23.13
2022-10-27T17:16:40.609Z,20.17
2022-10-27T17:19:07.384Z,27.87
2022-10-27T17:21:35.463Z,25.13
2022-10-27T17:24:02.841Z,22.50
2022-10-27T17:26:31.248Z,24.33
2022-10-27T17:28:59.242Z,23.10
2022-10-27T17:31:26.193Z,21.60
2022-10-27T17:33:59.961Z,24.00
2022-10-27T17:36:26.926Z,24.60
2022-10-27T17:38:53.955Z,22.30
2022-10-27T17:41:21.065Z,23.43
2022-10-27T17:43:48.173Z,26.00
2022-10-27T17:46:18.636Z,24.83
2022-10-27T17:48:49.446Z,27.67
2022-10-27T17:51:17.172Z,30.00
2022-10-27T17:53:44.232Z,29.63
2022-10-27T17:56:14.415Z,39.37
2022-10-27T17:58:41.446Z,39.93
2022-10-27T18:01:12.285Z,38.70
2022-10-27T18:03:40.490Z,41.40
2022-10-27T18:06:11.453Z,40.40
2022-10-27T18:08:38.566Z,42.67
2022-10-27T18:11:21.740Z,39.37
2022-10-27T18:13:49.169Z,35.40
2022-10-27T18:16:25.706Z,37.07
2022-10-27T18:18:57.122Z,36.37
2022-10-27T18:21:25.410Z,37.00
2022-10-27T18:23:55.461Z,37.37
2022-10-27T18:26:22.533Z,35.50
2022-10-27T18:28:49.300Z,34.20
2022-10-27T18:31:17.198Z,34.00
2022-10-27T18:33:47.168Z,31.53
2022-10-27T18:36:15.045Z,31.70
2022-10-27T18:38:42.160Z,30.80
2022-10-27T18:41:10.150Z,33.17
2022-10-27T18:43:37.837Z,34.03
2022-10-27T18:46:05.765Z,33.73
2022-10-27T18:48:33.888Z,36.63
2022-10-27T18:51:01.737Z,34.00
2022-10-27T18:53:31.485Z,35.70
2022-10-27T18:56:08.927Z,33.20
2022-10-27T18:58:36.796Z,32.87
2022-10-27T19:01:04.432Z,32.97
2022-10-27T19:03:31.233Z,37.83
2022-10-27T19:05:58.269Z,36.47
2022-10-27T19:08:25.334Z,35.37
2022-10-27T19:10:52.562Z,37.90
2022-10-27T19:13:20.254Z,39.63
2022-10-27T19:15:49.434Z,36.37
2022-10-27T19:18:17.423Z,38.20
2022-10-27T19:20:45.580Z,34.93
2022-10-27T19:23:12.281Z,35.07
2022-10-27T19:25:39.321Z,33.43
2022-10-27T19:28:08.110Z,32.10
2022-10-27T19:30:38.048Z,33.43
2022-10-27T19:33:07.960Z,31.73
2022-10-27T19:35:35.430Z,32.23
2022-10-27T19:38:03.221Z,33.57
2022-10-27T19:40:31.337Z,38.33
2022-10-27T19:42:58.668Z,32.03
2022-10-27T19:45:25.570Z,31.37
2022-10-27T19:47:55.889Z,29.37
2022-10-27T19:50:23.108Z,30.03
2022-10-27T19:52:49.911Z,28.63
2022-10-27T19:55:17.039Z,31.10
2022-10-27T19:57:43.716Z,32.00
2022-10-27T20:00:13.925Z,34.07
2022-10-27T20:02:41.308Z,34.17
2022-10-27T20:05:08.300Z,35.23
2022-10-27T20:07:35.480Z,34.27
2022-10-27T20:10:02.166Z,35.33
2022-10-27T20:12:30.072Z,34.07
2022-10-27T20:14:56.967Z,33.87
2022-10-27T20:17:24.169Z,34.47
2022-10-27T20:19:51.202Z,32.83
2022-10-27T20:22:18.507Z,32.00
2022-10-27T20:24:46.432Z,31.03
2022-10-27T20:27:13.968Z,33.53
2022-10-27T20:29:41.428Z,30.03
2022-10-27T20:32:08.412Z,27.77
2022-10-27T20:34:39.550Z,27.60
2022-10-27T20:37:07.157Z,58.80
2022-10-27T20:39:34.247Z,32.10
2022-10-27T20:42:01.403Z,41.53
2022-10-27T20:44:30.656Z,26.77
2022-10-27T20:46:58.612Z,31.67
2022-10-27T20:49:25.848Z,31.60
2022-10-27T20:51:52.944Z,27.13
2022-10-27T20:54:19.970Z,25.57
2022-10-27T20:56:49.271Z,25.17
2022-10-27T20:59:20.153Z,27.80
2022-10-27T21:01:49.890Z,30.23
2022-10-27T21:04:17.633Z,27.97
2022-10-27T21:06:47.850Z,27.93
2022-10-27T21:09:15.332Z,27.60
2022-10-27T21:11:42.705Z,29.80
2022-10-27T21:14:09.491Z,26.43
2022-10-27T21:16:36.352Z,26.43
2022-10-27T21:19:04.172Z,28.83
2022-10-27T21:21:31.254Z,26.50
2022-10-27T21:23:58.510Z,24.10
2022-10-27T21:26:26.438Z,25.50
2022-10-27T21:28:53.983Z,25.43
2022-10-27T21:31:21.678Z,24.03
2022-10-27T21:33:48.404Z,24.00
2022-10-27T21:36:15.343Z,25.07
2022-10-27T21:38:42.757Z,27.07
2022-10-27T21:41:10.794Z,25.60
2022-10-27T21:43:38.115Z,25.40
2022-10-27T21:46:04.999Z,25.90
2022-10-27T21:48:31.647Z,27.50
2022-10-27T21:50:58.634Z,25.63
2022-10-27T21:53:25.544Z,26.27
2022-10-27T21:55:53.069Z,27.83
2022-10-27T21:58:19.971Z,31.53
2022-10-27T22:00:46.718Z,29.73
2022-10-27T22:03:14.335Z,27.30
2022-10-27T22:05:41.539Z,24.23
2022-10-27T22:08:08.365Z,23.37
2022-10-27T22:10:35.185Z,22.87
2022-10-27T22:13:02.156Z,24.13
2022-10-27T22:15:28.948Z,22.93
2022-10-27T22:17:55.555Z,23.63
2022-10-27T22:20:22.231Z,23.40
2022-10-27T22:22:49.058Z,23.50
2022-10-27T22:25:15.736Z,22.83
2022-10-27T22:27:42.305Z,23.63
2022-10-27T22:30:09.100Z,23.10
2022-10-27T22:32:35.751Z,20.47
2022-10-27T22:35:02.454Z,21.20
2022-10-27T22:40:13.171Z,20.40
2022-10-27T22:45:24.003Z,22.20
2022-10-27T22:50:34.948Z,20.70
2022-10-27T22:53:01.553Z,21.33
2022-10-27T22:55:28.266Z,21.33
2022-10-27T22:57:55.065Z,21.77
2022-10-27T23:00:22.064Z,21.13
2022-10-27T23:02:48.656Z,21.03
2022-10-27T23:05:15.442Z,21.53
2022-10-27T23:07:42.124Z,23.30
2022-10-27T23:10:08.769Z,24.17
2022-10-27T23:12:35.441Z,23.80
2022-10-27T23:15:02.222Z,25.03
2022-10-27T23:17:28.802Z,23.73
2022-10-27T23:19:55.437Z,23.77
2022-10-27T23:22:22.105Z,22.33
2022-10-27T23:24:48.848Z,23.97
2022-10-27T23:27:15.507Z,21.63
2022-10-27T23:29:42.259Z,21.93
2022-10-27T23:32:09.021Z,21.37
2022-10-27T23:34:35.703Z,22.47
2022-10-27T23:37:02.313Z,22.13
2022-10-27T23:39:29.043Z,22.27
2022-10-27T23:41:55.699Z,20.73
2022-10-27T23:44:22.499Z,22.20
2022-10-27T23:46:49.096Z,21.87
2022-10-27T23:49:15.926Z,20.83
2022-10-27T23:51:42.621Z,22.23
2022-10-27T23:54:09.300Z,22.37
2022-10-27T23:56:35.973Z,22.27
2022-10-27T23:59:02.686Z,23.63
